createdAt,value
2023-01-11T00:02:42.671Z,83
2023-01-11T00:05:42.676Z,83
2023-01-11T00:08:42.691Z,83
2023-01-11T00:11:42.682Z,83
2023-01-11T00:14:42.683Z,83
2023-01-11T00:17:42.684Z,83
2023-01-11T00:20:42.682Z,83
2023-01-11T00:23:42.705Z,83
2023-01-11T00:26:42.694Z,83
2023-01-11T00:29:42.684Z,84
2023-01-11T00:32:42.690Z,84
2023-01-11T00:35:42.692Z,84
2023-01-11T00:38:42.715Z,84
2023-01-11T00:41:42.711Z,84
2023-01-11T00:44:42.690Z,84
2023-01-11T00:47:42.701Z,84
2023-01-11T00:50:42.693Z,84
2023-01-11T00:53:42.706Z,84
2023-01-11T00:56:42.692Z,84
2023-01-11T00:59:42.697Z,84
2023-01-11T01:02:42.805Z,84
2023-01-11T01:05:42.720Z,84
2023-01-11T01:08:42.707Z,84
2023-01-11T01:11:42.691Z,84
2023-01-11T01:14:42.694Z,84
2023-01-11T01:17:42.696Z,84
2023-01-11T01:20:42.691Z,84
2023-01-11T01:23:42.706Z,84
2023-01-11T01:26:42.708Z,84
2023-01-11T01:29:42.711Z,84
2023-01-11T01:32:42.702Z,84
2023-01-11T01:35:42.699Z,84
2023-01-11T01:38:42.717Z,84
2023-01-11T01:41:42.708Z,84
2023-01-11T01:44:42.711Z,84
2023-01-11T01:47:42.738Z,84
2023-01-11T01:50:42.734Z,84
2023-01-11T01:53:42.750Z,84
2023-01-11T01:56:42.753Z,84
2023-01-11T01:59:42.742Z,84
2023-01-11T02:02:42.789Z,84
2023-01-11T02:05:42.753Z,84
2023-01-11T02:08:42.754Z,84
2023-01-11T02:11:42.734Z,84
2023-01-11T02:14:42.745Z,84
2023-01-11T02:17:42.738Z,84
2023-01-11T02:20:42.746Z,84
2023-01-11T02:23:42.747Z,84
2023-01-11T02:26:42.746Z,84
2023-01-11T02:29:42.751Z,84
2023-01-11T02:32:42.738Z,84
2023-01-11T02:35:42.754Z,84
2023-01-11T02:38:42.750Z,84
2023-01-11T02:41:42.748Z,84
2023-01-11T02:44:42.742Z,84
2023-01-11T02:47:42.742Z,84
2023-01-11T02:50:42.757Z,84
2023-01-11T02:53:42.760Z,84
2023-01-11T02:56:42.738Z,84
2023-01-11T02:59:42.750Z,84
2023-01-11T03:02:42.794Z,84
2023-01-11T03:08:42.759Z,85
2023-01-11T03:11:42.744Z,85
2023-01-11T03:14:42.741Z,85
2023-01-11T03:17:42.753Z,85
2023-01-11T03:20:42.742Z,85
2023-01-11T03:23:42.771Z,85
2023-01-11T03:26:42.759Z,85
2023-01-11T03:29:42.749Z,85
2023-01-11T03:32:42.750Z,85
2023-01-11T03:35:42.761Z,85
2023-01-11T03:38:42.755Z,85
2023-01-11T03:41:42.759Z,85
2023-01-11T03:44:42.765Z,85
2023-01-11T03:47:42.770Z,85
2023-01-11T03:50:42.752Z,85
2023-01-11T03:53:42.766Z,85
2023-01-11T03:56:42.751Z,85
2023-01-11T03:59:42.774Z,85
2023-01-11T04:02:42.756Z,85
2023-01-11T04:05:42.766Z,86
2023-01-11T04:08:42.767Z,86
2023-01-11T04:11:42.763Z,86
2023-01-11T04:14:42.795Z,86
2023-01-11T04:17:42.769Z,86
2023-01-11T04:20:42.769Z,86
2023-01-11T04:23:42.771Z,86
2023-01-11T04:26:42.759Z,86
2023-01-11T04:29:42.768Z,86
2023-01-11T04:32:42.758Z,86
2023-01-11T04:35:42.771Z,86
2023-01-11T04:38:42.762Z,86
2023-01-11T04:41:42.789Z,86
2023-01-11T04:44:42.763Z,86
2023-01-11T04:47:42.769Z,86
2023-01-11T04:50:42.816Z,86
2023-01-11T04:53:42.761Z,86
2023-01-11T04:56:42.769Z,86
2023-01-11T04:59:42.803Z,86
2023-01-11T05:02:42.777Z,86
2023-01-11T05:05:42.763Z,86
2023-01-11T05:08:42.772Z,86
2023-01-11T05:11:42.765Z,86
2023-01-11T05:14:42.783Z,87
2023-01-11T05:17:42.770Z,87
2023-01-11T05:20:42.765Z,87
2023-01-11T05:23:42.791Z,87
2023-01-11T05:26:42.770Z,87
2023-01-11T05:29:42.772Z,87
2023-01-11T05:32:42.772Z,87
2023-01-11T05:35:42.778Z,87
2023-01-11T05:38:42.775Z,87
2023-01-11T05:41:42.771Z,87
2023-01-11T05:44:42.760Z,87
2023-01-11T05:47:42.773Z,87
2023-01-11T05:50:42.773Z,87
2023-01-11T05:56:42.774Z,87
2023-01-11T06:02:42.895Z,87
2023-01-11T06:05:43.305Z,87
2023-01-11T06:08:42.806Z,87
2023-01-11T06:11:42.783Z,87
2023-01-11T06:14:42.772Z,87
2023-01-11T06:17:42.817Z,87
2023-01-11T06:20:42.789Z,87
2023-01-11T06:23:42.789Z,87
2023-01-11T06:26:42.782Z,87
2023-01-11T06:29:42.779Z,87
2023-01-11T06:32:42.794Z,87
2023-01-11T06:35:42.794Z,88
2023-01-11T06:38:42.798Z,88
2023-01-11T06:41:42.781Z,88
2023-01-11T06:44:42.777Z,88
2023-01-11T06:47:42.792Z,88
2023-01-11T06:50:42.777Z,88
2023-01-11T06:53:42.777Z,88
2023-01-11T06:56:42.777Z,88
2023-01-11T06:59:42.779Z,88
2023-01-11T07:02:42.832Z,88
2023-01-11T07:05:42.796Z,88
2023-01-11T07:08:42.849Z,88
2023-01-11T07:11:42.789Z,88
2023-01-11T07:14:42.794Z,88
2023-01-11T07:17:42.796Z,88
2023-01-11T07:20:42.785Z,88
2023-01-11T07:23:42.794Z,88
2023-01-11T07:26:42.789Z,88
2023-01-11T07:29:42.781Z,88
2023-01-11T07:32:42.788Z,88
2023-01-11T07:35:42.826Z,88
2023-01-11T07:38:42.793Z,88
2023-01-11T07:41:42.788Z,88
2023-01-11T07:44:42.807Z,88
2023-01-11T07:47:42.796Z,88
2023-01-11T07:50:44.964Z,88
2023-01-11T07:53:42.811Z,89
2023-01-11T07:56:42.787Z,89
2023-01-11T07:59:42.793Z,89
2023-01-11T08:02:42.854Z,89
2023-01-11T08:05:42.803Z,89
2023-01-11T08:08:42.811Z,89
2023-01-11T08:11:42.804Z,89
2023-01-11T08:14:42.819Z,89
2023-01-11T08:17:42.815Z,89
2023-01-11T08:20:42.794Z,89
2023-01-11T08:23:42.805Z,89
2023-01-11T08:26:42.870Z,89
2023-01-11T08:29:42.827Z,89
2023-01-11T08:32:42.800Z,89
2023-01-11T08:35:42.803Z,89
2023-01-11T08:38:42.843Z,89
2023-01-11T08:41:42.816Z,89
2023-01-11T08:44:42.825Z,89
2023-01-11T08:47:42.804Z,89
2023-01-11T08:50:42.839Z,89
2023-01-11T08:53:42.833Z,89
2023-01-11T08:56:42.830Z,89
2023-01-11T08:59:42.843Z,89
2023-01-11T09:02:43.008Z,89
2023-01-11T09:05:42.838Z,89
2023-01-11T09:08:42.845Z,89
2023-01-11T09:11:42.834Z,89
2023-01-11T09:14:42.838Z,89
2023-01-11T09:17:42.840Z,89
2023-01-11T09:20:42.839Z,89
2023-01-11T09:23:42.827Z,89
2023-01-11T09:26:42.899Z,89
2023-01-11T09:29:42.856Z,89
2023-01-11T09:32:42.829Z,89
2023-01-11T09:35:42.883Z,89
2023-01-11T09:38:42.829Z,89
2023-01-11T09:41:42.845Z,89
2023-01-11T09:44:42.829Z,89
2023-01-11T09:47:42.848Z,89
2023-01-11T09:50:42.847Z,89
2023-01-11T09:53:42.839Z,89
2023-01-11T09:56:42.848Z,89
2023-01-11T09:59:42.837Z,90
2023-01-11T10:02:42.839Z,90
2023-01-11T10:05:42.851Z,90
2023-01-11T10:18:24.548Z,90
2023-01-11T10:18:34.804Z,90
2023-01-11T10:20:42.857Z,90
2023-01-11T10:23:42.836Z,90
2023-01-11T10:26:42.887Z,90
2023-01-11T10:29:42.855Z,90
2023-01-11T10:32:42.848Z,90
2023-01-11T10:35:42.852Z,90
2023-01-11T10:38:42.854Z,90
2023-01-11T10:41:43.246Z,90
2023-01-11T10:44:42.854Z,90
2023-01-11T10:47:42.838Z,90
2023-01-11T10:50:42.852Z,90
2023-01-11T10:53:42.864Z,90
2023-01-11T10:57:02.071Z,90
2023-01-11T10:59:42.870Z,90
2023-01-11T11:02:42.843Z,90
2023-01-11T11:05:42.861Z,90
2023-01-11T11:08:42.841Z,90
2023-01-11T11:11:42.859Z,90
2023-01-11T11:14:42.855Z,90
2023-01-11T11:17:42.858Z,90
2023-01-11T11:20:42.859Z,90
2023-01-11T11:23:42.843Z,90
2023-01-11T11:26:42.866Z,90
2023-01-11T11:29:42.855Z,90
2023-01-11T11:32:42.856Z,90
2023-01-11T11:35:42.851Z,90
2023-01-11T11:38:42.868Z,90
2023-01-11T11:41:42.863Z,90
2023-01-11T11:44:42.859Z,90
2023-01-11T11:47:42.852Z,90
2023-01-11T11:50:44.988Z,90
2023-01-11T11:53:42.855Z,90
2023-01-11T11:56:42.891Z,90
2023-01-11T11:59:42.856Z,90
2023-01-11T12:02:42.856Z,90
2023-01-11T12:05:42.864Z,90
2023-01-11T12:08:42.876Z,90
2023-01-11T12:11:42.871Z,90
2023-01-11T12:14:42.856Z,90
2023-01-11T12:17:42.874Z,90
2023-01-11T12:20:42.859Z,90
2023-01-11T12:26:42.948Z,90
2023-01-11T12:29:42.859Z,90
2023-01-11T12:32:42.856Z,90
2023-01-11T12:35:42.857Z,90
2023-01-11T12:41:42.867Z,90
2023-01-11T12:44:42.858Z,90
2023-01-11T12:47:42.866Z,90
2023-01-11T12:50:42.865Z,90
2023-01-11T12:53:42.889Z,90
2023-01-11T12:56:42.885Z,90
2023-01-11T12:59:42.873Z,90
2023-01-11T13:02:42.969Z,90
2023-01-11T13:05:42.907Z,90
2023-01-11T13:08:42.869Z,90
2023-01-11T13:11:42.886Z,90
2023-01-11T13:14:42.868Z,90
2023-01-11T13:17:42.877Z,90
2023-01-11T13:20:59.143Z,90
2023-01-11T13:23:42.909Z,90
2023-01-11T13:26:42.980Z,90
2023-01-11T13:29:42.875Z,90
2023-01-11T13:32:42.884Z,90
2023-01-11T13:35:42.881Z,90
2023-01-11T13:38:42.876Z,91
2023-01-11T13:41:42.883Z,91
2023-01-11T13:44:42.868Z,91
2023-01-11T13:50:42.881Z,91
2023-01-11T13:53:42.874Z,91
2023-01-11T13:56:42.884Z,91
2023-01-11T13:59:42.870Z,91
2023-01-11T14:02:42.881Z,91
2023-01-11T14:05:42.887Z,91
2023-01-11T14:08:42.886Z,91
2023-01-11T14:11:42.898Z,91
2023-01-11T14:14:42.879Z,91
2023-01-11T14:17:42.901Z,91
2023-01-11T14:20:42.887Z,91
2023-01-11T14:23:42.907Z,91
2023-01-11T14:26:42.906Z,91
2023-01-11T14:29:42.880Z,91
2023-01-11T14:32:42.888Z,91
2023-01-11T14:35:42.895Z,91
2023-01-11T14:38:42.881Z,91
2023-01-11T14:41:42.878Z,91
2023-01-11T14:44:42.885Z,91
2023-01-11T14:47:42.878Z,91
2023-01-11T14:50:42.905Z,91
2023-01-11T14:53:42.909Z,91
2023-01-11T14:56:42.904Z,91
2023-01-11T14:59:42.891Z,91
2023-01-11T15:02:42.899Z,91
2023-01-11T15:05:42.898Z,91
2023-01-11T15:08:42.900Z,91
2023-01-11T15:11:42.890Z,91
2023-01-11T15:14:42.889Z,91
2023-01-11T15:17:42.892Z,91
2023-01-11T15:20:42.907Z,91
2023-01-11T15:23:42.893Z,91
2023-01-11T15:26:42.926Z,91
2023-01-11T15:29:42.908Z,91
2023-01-11T15:32:42.889Z,91
2023-01-11T15:35:42.900Z,91
2023-01-11T15:38:42.921Z,91
2023-01-11T15:41:42.906Z,91
2023-01-11T15:44:42.896Z,91
2023-01-11T15:50:42.905Z,91
2023-01-11T15:53:42.901Z,91
2023-01-11T15:56:42.926Z,91
2023-01-11T15:59:42.905Z,91
2023-01-11T16:02:42.899Z,91
2023-01-11T16:05:42.914Z,91
2023-01-11T16:08:42.910Z,91
2023-01-11T16:11:42.927Z,91
2023-01-11T16:14:42.907Z,91
2023-01-11T16:17:42.903Z,92
2023-01-11T16:20:42.918Z,92
2023-01-11T16:23:42.902Z,92
2023-01-11T16:26:42.999Z,92
2023-01-11T16:29:42.905Z,92
2023-01-11T16:32:42.904Z,92
2023-01-11T16:35:42.914Z,92
2023-01-11T16:41:42.931Z,92
2023-01-11T16:44:42.913Z,92
2023-01-11T16:47:42.938Z,92
2023-01-11T16:50:42.918Z,92
2023-01-11T16:53:42.940Z,92
2023-01-11T16:56:43.012Z,92
2023-01-11T16:59:42.956Z,92
2023-01-11T17:02:42.971Z,92
2023-01-11T17:05:42.954Z,92
2023-01-11T17:08:42.952Z,92
2023-01-11T17:11:42.955Z,92
2023-01-11T17:14:42.945Z,92
2023-01-11T17:17:43.122Z,91
2023-01-11T17:20:42.990Z,91
2023-01-11T17:23:42.957Z,91
2023-01-11T17:26:42.991Z,91
2023-01-11T17:29:42.966Z,91
2023-01-11T17:32:42.972Z,91
2023-01-11T17:35:42.966Z,91
2023-01-11T17:41:43.040Z,91
2023-01-11T17:44:42.957Z,91
2023-01-11T17:47:42.967Z,91
2023-01-11T17:50:42.963Z,91
2023-01-11T17:53:42.962Z,91
2023-01-11T17:56:42.975Z,91
2023-01-11T17:59:42.993Z,91
2023-01-11T18:02:43.027Z,91
2023-01-11T18:05:42.974Z,91
2023-01-11T18:08:42.967Z,91
2023-01-11T18:11:42.991Z,91
2023-01-11T18:14:42.970Z,91
2023-01-11T18:17:42.970Z,91
2023-01-11T18:20:42.974Z,91
2023-01-11T18:23:42.964Z,91
2023-01-11T18:26:43.062Z,91
2023-01-11T18:29:42.975Z,91
2023-01-11T18:32:42.970Z,91
2023-01-11T18:35:42.980Z,91
2023-01-11T18:38:42.977Z,90
2023-01-11T18:41:44.677Z,90
2023-01-11T18:44:42.975Z,90
2023-01-11T18:47:42.984Z,90
2023-01-11T18:50:42.978Z,90
2023-01-11T18:53:42.974Z,90
2023-01-11T18:56:42.986Z,90
2023-01-11T18:59:42.977Z,90
2023-01-11T19:02:43.160Z,90
2023-01-11T19:05:42.990Z,90
2023-01-11T19:08:42.986Z,90
2023-01-11T19:11:42.991Z,90
2023-01-11T19:14:42.981Z,90
2023-01-11T19:17:42.991Z,90
2023-01-11T19:20:42.987Z,90
2023-01-11T19:23:42.998Z,90
2023-01-11T19:26:43.056Z,90
2023-01-11T19:29:42.987Z,90
2023-01-11T19:32:42.989Z,90
2023-01-11T19:35:42.990Z,90
2023-01-11T19:38:42.991Z,90
2023-01-11T19:41:42.991Z,90
2023-01-11T19:44:42.989Z,90
2023-01-11T19:47:43.006Z,90
2023-01-11T19:50:42.991Z,90
2023-01-11T19:53:42.997Z,90
2023-01-11T19:56:42.991Z,90
2023-01-11T19:59:43.003Z,90
2023-01-11T20:02:43.044Z,90
2023-01-11T20:05:43.000Z,90
2023-01-11T20:08:43.016Z,90
2023-01-11T20:11:43.017Z,90
2023-01-11T20:14:42.995Z,90
2023-01-11T20:17:42.988Z,90
2023-01-11T20:20:43.003Z,90
2023-01-11T20:23:43.012Z,90
2023-01-11T20:26:43.043Z,90
2023-01-11T20:29:43.000Z,89
2023-01-11T20:32:43.001Z,89
2023-01-11T20:35:43.001Z,89
2023-01-11T20:38:42.995Z,89
2023-01-11T20:41:43.010Z,89
2023-01-11T20:44:43.002Z,89
2023-01-11T20:47:42.989Z,89
2023-01-11T20:50:43.026Z,89
2023-01-11T20:53:43.009Z,89
2023-01-11T20:59:43.043Z,89
2023-01-11T21:02:43.070Z,89
2023-01-11T21:05:42.996Z,89
2023-01-11T21:08:43.015Z,89
2023-01-11T21:11:43.057Z,89
2023-01-11T21:17:43.013Z,89
2023-01-11T21:20:42.997Z,89
2023-01-11T21:23:43.014Z,89
2023-01-11T21:26:43.050Z,89
2023-01-11T21:29:43.007Z,89
2023-01-11T21:32:42.995Z,89
2023-01-11T21:35:43.015Z,89
2023-01-11T21:38:43.005Z,89
2023-01-11T21:41:43.003Z,89
2023-01-11T21:44:43.001Z,89
2023-01-11T21:47:43.000Z,89
2023-01-11T21:50:43.058Z,89
2023-01-11T21:53:43.052Z,89
2023-01-11T21:56:43.075Z,89
2023-01-11T21:59:43.059Z,89
2023-01-11T22:02:43.051Z,89
2023-01-11T22:05:43.073Z,89
2023-01-11T22:08:43.060Z,89
2023-01-11T22:11:43.087Z,89
2023-01-11T22:14:43.066Z,89
2023-01-11T22:17:43.069Z,89
2023-01-11T22:20:43.057Z,89
2023-01-11T22:23:43.069Z,89
2023-01-11T22:26:43.149Z,89
2023-01-11T22:29:43.059Z,89
2023-01-11T22:32:43.046Z,89
2023-01-11T22:35:43.063Z,89
2023-01-11T22:38:43.075Z,89
2023-01-11T22:41:43.071Z,89
2023-01-11T22:44:43.074Z,89
2023-01-11T22:47:43.054Z,89
2023-01-11T22:50:43.062Z,89
2023-01-11T22:53:43.067Z,89
2023-01-11T22:56:43.081Z,89
2023-01-11T22:59:43.068Z,89
2023-01-11T23:02:43.128Z,89
2023-01-11T23:05:43.059Z,89
2023-01-11T23:08:43.075Z,89
2023-01-11T23:11:43.082Z,89
2023-01-11T23:14:43.069Z,89
2023-01-11T23:17:43.080Z,89
2023-01-11T23:20:43.078Z,89
2023-01-11T23:23:43.073Z,89
2023-01-11T23:26:43.123Z,89
2023-01-11T23:29:43.076Z,89
2023-01-11T23:32:43.070Z,89
2023-01-11T23:35:43.076Z,89
2023-01-11T23:38:43.076Z,89
2023-01-11T23:41:43.087Z,89
2023-01-11T23:44:43.078Z,89
2023-01-11T23:47:43.075Z,89
2023-01-11T23:50:43.079Z,89
2023-01-11T23:53:43.082Z,88
2023-01-11T23:56:43.077Z,88
2023-01-11T23:59:43.082Z,88
